ARG1499 SASA-SABE
Flight info
| Callsign | ARG1499 |
|---|---|
| Flight time | 1h 49m |
| Altitude | 37000 |
| Route | VUL1 PONPI UT681 PUBER UL550 ROS UT672 MULTA UW24 SNT SNT9R |
| Aircraft | B738/M-MSDFGHILRVWS/LB1 |
Departure
| Time | 2026-05-07 22:23 |
|---|---|
| Airport | Martín Miguel de Güemes International Airport (SASA) |
Arrival
| Time | 2026-05-08 00:13 |
|---|---|
| Airport | Aeroparque Jorge Newbery (SABE) |
| Time | Latitude | Longitude | Altitude | Speed | Heading |
|---|---|---|---|---|---|
| 2026-05-07 21:31 | -24.84470 | -65.47899 | 4016 ft | 0 kts | 21° |
| 2026-05-07 22:12 | -24.84483 | -65.47904 | 4016 ft | 3 kts | 19° |
| 2026-05-07 22:12 | -24.84501 | -65.47909 | 4016 ft | 3 kts | 348° |
| 2026-05-07 22:12 | -24.84511 | -65.47903 | 4016 ft | 2 kts | 292° |
| 2026-05-07 22:12 | -24.84518 | -65.47882 | 4016 ft | 3 kts | 292° |
| 2026-05-07 22:13 | -24.84526 | -65.47862 | 4016 ft | 2 kts | 292° |
| 2026-05-07 22:13 | -24.84526 | -65.47861 | 4016 ft | 0 kts | 292° |
| 2026-05-07 22:15 | -24.84520 | -65.47877 | 4016 ft | 7 kts | 292° |
| 2026-05-07 22:15 | -24.84499 | -65.47942 | 4016 ft | 10 kts | 278° |
| 2026-05-07 22:15 | -24.84514 | -65.48012 | 4016 ft | 9 kts | 252° |
| 2026-05-07 22:16 | -24.84534 | -65.48079 | 4016 ft | 9 kts | 252° |
| 2026-05-07 22:16 | -24.84553 | -65.48145 | 4016 ft | 9 kts | 252° |
| 2026-05-07 22:16 | -24.84572 | -65.48208 | 4016 ft | 9 kts | 252° |
| 2026-05-07 22:16 | -24.84590 | -65.48270 | 4016 ft | 8 kts | 252° |
| 2026-05-07 22:17 | -24.84614 | -65.48327 | 4016 ft | 8 kts | 233° |
| 2026-05-07 22:17 | -24.84675 | -65.48390 | 4016 ft | 19 kts | 221° |
| 2026-05-07 22:17 | -24.84833 | -65.48463 | 4018 ft | 31 kts | 190° |
| 2026-05-07 22:17 | -24.85092 | -65.48516 | 4016 ft | 44 kts | 191° |
| 2026-05-07 22:18 | -24.85393 | -65.48576 | 4016 ft | 43 kts | 190° |
| 2026-05-07 22:18 | -24.85933 | -65.48694 | 4018 ft | 36 kts | 191° |
| 2026-05-07 22:18 | -24.86171 | -65.48747 | 4016 ft | 34 kts | 191° |
| 2026-05-07 22:19 | -24.86394 | -65.48795 | 4003 ft | 32 kts | 191° |
| 2026-05-07 22:19 | -24.86605 | -65.48841 | 4002 ft | 30 kts | 191° |
| 2026-05-07 22:19 | -24.86803 | -65.48882 | 4005 ft | 28 kts | 191° |
| 2026-05-07 22:19 | -24.86989 | -65.48921 | 4006 ft | 26 kts | 190° |
| 2026-05-07 22:20 | -24.87163 | -65.48958 | 4018 ft | 23 kts | 188° |
| 2026-05-07 22:20 | -24.87254 | -65.48949 | 4018 ft | 9 kts | 178° |
| 2026-05-07 22:20 | -24.87259 | -65.48983 | 4018 ft | 6 kts | 339° |
| 2026-05-07 22:20 | -24.87223 | -65.48971 | 4018 ft | 0 kts | 11° |
| 2026-05-07 22:21 | -24.87222 | -65.48971 | 4018 ft | 0 kts | 11° |
| 2026-05-07 22:22 | -24.87186 | -65.48963 | 4018 ft | 24 kts | 11° |
| 2026-05-07 22:23 | -24.86787 | -65.48877 | 4005 ft | 92 kts | 11° |
| 2026-05-07 22:23 | -24.85960 | -65.48700 | 4018 ft | 147 kts | 11° |
| 2026-05-07 22:23 | -24.84822 | -65.48453 | 4217 ft | 178 kts | 12° |
| 2026-05-07 22:23 | -24.83633 | -65.48195 | 5134 ft | 173 kts | 15° |
| 2026-05-07 22:24 | -24.82409 | -65.47908 | 5730 ft | 187 kts | 18° |
| 2026-05-07 22:24 | -24.81125 | -65.47577 | 6440 ft | 189 kts | 18° |
| 2026-05-07 22:24 | -24.79834 | -65.47241 | 7134 ft | 193 kts | 18° |
| 2026-05-07 22:24 | -24.78550 | -65.46830 | 7873 ft | 189 kts | 33° |
| 2026-05-07 22:25 | -24.77430 | -65.45965 | 8266 ft | 209 kts | 45° |
| 2026-05-07 22:25 | -24.76460 | -65.44669 | 8455 ft | 230 kts | 57° |
| 2026-05-07 22:25 | -24.75553 | -65.43110 | 8639 ft | 253 kts | 69° |
| 2026-05-07 22:25 | -24.75407 | -65.41134 | 8877 ft | 277 kts | 104° |
| 2026-05-07 22:26 | -24.75984 | -65.39052 | 9429 ft | 291 kts | 105° |
| 2026-05-07 22:26 | -24.76511 | -65.36869 | 10109 ft | 299 kts | 103° |
| 2026-05-07 22:26 | -24.77200 | -65.34691 | 10691 ft | 308 kts | 122° |
| 2026-05-07 22:26 | -24.78677 | -65.32978 | 11295 ft | 311 kts | 149° |
| 2026-05-07 22:27 | -24.80711 | -65.32113 | 11468 ft | 328 kts | 176° |
| 2026-05-07 22:27 | -24.83060 | -65.32010 | 11681 ft | 347 kts | 182° |
| 2026-05-07 22:27 | -24.85520 | -65.32025 | 12131 ft | 358 kts | 184° |
| 2026-05-07 22:27 | -24.88017 | -65.32050 | 12803 ft | 360 kts | 184° |
| 2026-05-07 22:28 | -24.90535 | -65.32063 | 13512 ft | 362 kts | 185° |
| 2026-05-07 22:28 | -24.93057 | -65.32063 | 14152 ft | 364 kts | 185° |
| 2026-05-07 22:28 | -24.95590 | -65.32054 | 14728 ft | 365 kts | 185° |
| 2026-05-07 22:28 | -24.98148 | -65.32038 | 15298 ft | 366 kts | 185° |
| 2026-05-07 22:29 | -25.00700 | -65.32022 | 15872 ft | 368 kts | 185° |
| 2026-05-07 22:29 | -25.03260 | -65.32003 | 16571 ft | 367 kts | 186° |
| 2026-05-07 22:29 | -25.05807 | -65.31986 | 17256 ft | 366 kts | 186° |
| 2026-05-07 22:29 | -25.08364 | -65.31970 | 17880 ft | 368 kts | 186° |
| 2026-05-07 22:30 | -25.10933 | -65.31954 | 18445 ft | 371 kts | 186° |
| 2026-05-07 22:30 | -25.13514 | -65.31938 | 18961 ft | 372 kts | 186° |
| 2026-05-07 22:30 | -25.16107 | -65.31922 | 19498 ft | 374 kts | 186° |
| 2026-05-07 22:30 | -25.18707 | -65.31905 | 20022 ft | 375 kts | 186° |
| 2026-05-07 22:31 | -25.21331 | -65.31888 | 20576 ft | 377 kts | 186° |
| 2026-05-07 22:31 | -25.23953 | -65.31871 | 21129 ft | 378 kts | 186° |
| 2026-05-07 22:31 | -25.26593 | -65.31853 | 21643 ft | 380 kts | 186° |
| 2026-05-07 22:31 | -25.29239 | -65.31835 | 22140 ft | 381 kts | 186° |
| 2026-05-07 22:32 | -25.31889 | -65.31817 | 22735 ft | 379 kts | 185° |
| 2026-05-07 22:32 | -25.34484 | -65.31799 | 23352 ft | 378 kts | 186° |
| 2026-05-07 22:32 | -25.37118 | -65.31782 | 23806 ft | 379 kts | 186° |
| 2026-05-07 22:32 | -25.39771 | -65.31765 | 24176 ft | 382 kts | 186° |
| 2026-05-07 22:33 | -25.42445 | -65.31749 | 24518 ft | 385 kts | 186° |
| 2026-05-07 22:33 | -25.45134 | -65.31732 | 24874 ft | 388 kts | 185° |
| 2026-05-07 22:33 | -25.47845 | -65.31714 | 25267 ft | 390 kts | 185° |
| 2026-05-07 22:33 | -25.50566 | -65.31696 | 25655 ft | 392 kts | 185° |
| 2026-05-07 22:34 | -25.53305 | -65.31677 | 26021 ft | 394 kts | 185° |
| 2026-05-07 22:34 | -25.56058 | -65.31659 | 26334 ft | 397 kts | 185° |
| 2026-05-07 22:34 | -25.58827 | -65.31641 | 26693 ft | 398 kts | 185° |
| 2026-05-07 22:34 | -25.61602 | -65.31622 | 27069 ft | 399 kts | 185° |
| 2026-05-07 22:35 | -25.64381 | -65.31603 | 27432 ft | 401 kts | 185° |
| 2026-05-07 22:35 | -25.67190 | -65.31585 | 27770 ft | 404 kts | 185° |
| 2026-05-07 22:35 | -25.69974 | -65.31566 | 28081 ft | 406 kts | 185° |
| 2026-05-07 22:35 | -25.72807 | -65.31548 | 28394 ft | 408 kts | 185° |
| 2026-05-07 22:36 | -25.75656 | -65.31432 | 28697 ft | 415 kts | 178° |
| 2026-05-07 22:36 | -25.78485 | -65.30617 | 28986 ft | 425 kts | 167° |
| 2026-05-07 22:36 | -25.81295 | -65.29541 | 29330 ft | 427 kts | 167° |
| 2026-05-07 22:36 | -25.84113 | -65.28468 | 29486 ft | 432 kts | 167° |
| 2026-05-07 22:37 | -25.86979 | -65.27386 | 29732 ft | 435 kts | 168° |
| 2026-05-07 22:37 | -25.89858 | -65.26309 | 29950 ft | 438 kts | 168° |
| 2026-05-07 22:37 | -25.92767 | -65.25229 | 30237 ft | 439 kts | 168° |
| 2026-05-07 22:37 | -25.95629 | -65.24169 | 30588 ft | 438 kts | 168° |
| 2026-05-07 22:38 | -25.98504 | -65.23105 | 31020 ft | 435 kts | 168° |
| 2026-05-07 22:38 | -26.01361 | -65.22049 | 31450 ft | 432 kts | 168° |
| 2026-05-07 22:38 | -26.04216 | -65.20995 | 31805 ft | 431 kts | 168° |
| 2026-05-07 22:38 | -26.07052 | -65.19949 | 32116 ft | 430 kts | 168° |
| 2026-05-07 22:39 | -26.09898 | -65.18899 | 32463 ft | 429 kts | 168° |
| 2026-05-07 22:39 | -26.12726 | -65.17854 | 32846 ft | 427 kts | 168° |
| 2026-05-07 22:39 | -26.15535 | -65.16815 | 33216 ft | 425 kts | 168° |
| 2026-05-07 22:39 | -26.18336 | -65.15779 | 33543 ft | 424 kts | 168° |
| 2026-05-07 22:40 | -26.21141 | -65.14741 | 33871 ft | 423 kts | 168° |
| 2026-05-07 22:40 | -26.23931 | -65.13709 | 34196 ft | 422 kts | 168° |
| 2026-05-07 22:40 | -26.26709 | -65.12680 | 34431 ft | 422 kts | 168° |
| 2026-05-07 22:40 | -26.29505 | -65.11645 | 34586 ft | 424 kts | 168° |
| 2026-05-07 22:41 | -26.32323 | -65.10602 | 34776 ft | 425 kts | 168° |
| 2026-05-07 22:41 | -26.35126 | -65.09562 | 35029 ft | 425 kts | 168° |
| 2026-05-07 22:41 | -26.37937 | -65.08517 | 35293 ft | 425 kts | 168° |
| 2026-05-07 22:41 | -26.40704 | -65.07485 | 35952 ft | 413 kts | 168° |
| 2026-05-07 22:42 | -26.43420 | -65.06471 | 36304 ft | 411 kts | 169° |
| 2026-05-07 22:42 | -26.48906 | -65.04439 | 36406 ft | 419 kts | 169° |
| 2026-05-07 22:42 | -26.51682 | -65.03409 | 36529 ft | 422 kts | 169° |
| 2026-05-07 22:43 | -26.54460 | -65.02375 | 36741 ft | 421 kts | 169° |
| 2026-05-07 22:43 | -26.57249 | -65.01335 | 36992 ft | 421 kts | 169° |
| 2026-05-07 22:43 | -26.60032 | -65.00297 | 36971 ft | 425 kts | 169° |
| 2026-05-07 22:44 | -26.65639 | -64.98204 | 37029 ft | 422 kts | 169° |
| 2026-05-07 22:44 | -26.71180 | -64.96131 | 36992 ft | 418 kts | 169° |
| 2026-05-07 22:45 | -26.76662 | -64.94082 | 36987 ft | 416 kts | 169° |
| 2026-05-07 22:45 | -26.82159 | -64.92026 | 37002 ft | 418 kts | 169° |
| 2026-05-07 22:46 | -26.86777 | -64.90300 | 37001 ft | 424 kts | 169° |
| 2026-05-07 22:46 | -26.92380 | -64.88201 | 36994 ft | 427 kts | 169° |
| 2026-05-07 22:47 | -26.97969 | -64.86099 | 36966 ft | 418 kts | 169° |
| 2026-05-07 22:47 | -27.03455 | -64.84036 | 36976 ft | 415 kts | 170° |
| 2026-05-07 22:48 | -27.08933 | -64.81981 | 36966 ft | 415 kts | 169° |
| 2026-05-07 22:48 | -27.14410 | -64.79922 | 36965 ft | 415 kts | 169° |
| 2026-05-07 22:49 | -27.19896 | -64.77856 | 36965 ft | 416 kts | 170° |
| 2026-05-07 22:49 | -27.25338 | -64.75803 | 36958 ft | 415 kts | 170° |
| 2026-05-07 22:50 | -27.30810 | -64.73737 | 36962 ft | 414 kts | 170° |
| 2026-05-07 22:50 | -27.36271 | -64.71674 | 36959 ft | 414 kts | 170° |
| 2026-05-07 22:51 | -27.41728 | -64.69609 | 36993 ft | 413 kts | 170° |
| 2026-05-07 22:51 | -27.47184 | -64.67543 | 36967 ft | 413 kts | 170° |
| 2026-05-07 22:52 | -27.52611 | -64.65439 | 36958 ft | 415 kts | 167° |
| 2026-05-07 22:52 | -27.57771 | -64.62264 | 36959 ft | 425 kts | 159° |
| 2026-05-07 22:53 | -27.62813 | -64.58822 | 36965 ft | 424 kts | 159° |
| 2026-05-07 22:53 | -27.67864 | -64.55396 | 36964 ft | 424 kts | 159° |
| 2026-05-07 22:54 | -27.72924 | -64.51985 | 36965 ft | 423 kts | 159° |
| 2026-05-07 22:54 | -27.77979 | -64.48582 | 36967 ft | 423 kts | 159° |
| 2026-05-07 22:55 | -27.83038 | -64.45173 | 36962 ft | 423 kts | 159° |
| 2026-05-07 22:55 | -27.88097 | -64.41760 | 36964 ft | 424 kts | 159° |
| 2026-05-07 22:56 | -27.93171 | -64.38333 | 36965 ft | 425 kts | 159° |
| 2026-05-07 22:56 | -27.98248 | -64.34898 | 36970 ft | 425 kts | 159° |
| 2026-05-07 22:57 | -28.03308 | -64.31472 | 36957 ft | 426 kts | 159° |
| 2026-05-07 22:57 | -28.08412 | -64.28013 | 36942 ft | 427 kts | 159° |
| 2026-05-07 22:58 | -28.13522 | -64.24544 | 36966 ft | 427 kts | 159° |
| 2026-05-07 22:58 | -28.18595 | -64.21097 | 36947 ft | 428 kts | 159° |
| 2026-05-07 22:59 | -28.23693 | -64.17629 | 36933 ft | 427 kts | 159° |
| 2026-05-07 22:59 | -28.28798 | -64.14154 | 36934 ft | 427 kts | 159° |
| 2026-05-07 23:00 | -28.33893 | -64.10684 | 36933 ft | 426 kts | 159° |
| 2026-05-07 23:00 | -28.38952 | -64.07234 | 36953 ft | 427 kts | 160° |
| 2026-05-07 23:01 | -28.44048 | -64.03756 | 36930 ft | 427 kts | 160° |
| 2026-05-07 23:01 | -28.49143 | -64.00273 | 36938 ft | 427 kts | 159° |
| 2026-05-07 23:02 | -28.54251 | -63.96778 | 36935 ft | 428 kts | 159° |
| 2026-05-07 23:02 | -28.59325 | -63.93301 | 36936 ft | 429 kts | 159° |
| 2026-05-07 23:03 | -28.64451 | -63.89785 | 36927 ft | 430 kts | 159° |
| 2026-05-07 23:03 | -28.69581 | -63.86261 | 36934 ft | 431 kts | 159° |
| 2026-05-07 23:04 | -28.74723 | -63.82724 | 36934 ft | 432 kts | 159° |
| 2026-05-07 23:04 | -28.79874 | -63.79179 | 36935 ft | 432 kts | 159° |
| 2026-05-07 23:05 | -28.85030 | -63.75608 | 36945 ft | 434 kts | 159° |
| 2026-05-07 23:05 | -28.90189 | -63.72016 | 36939 ft | 435 kts | 159° |
| 2026-05-07 23:06 | -28.95367 | -63.68407 | 36936 ft | 435 kts | 159° |
| 2026-05-07 23:06 | -29.00541 | -63.64799 | 36937 ft | 436 kts | 159° |
| 2026-05-07 23:07 | -29.05682 | -63.61211 | 36984 ft | 436 kts | 159° |
| 2026-05-07 23:07 | -29.10864 | -63.57591 | 36947 ft | 436 kts | 159° |
| 2026-05-07 23:08 | -29.16037 | -63.53971 | 36935 ft | 435 kts | 159° |
| 2026-05-07 23:08 | -29.21203 | -63.50352 | 36939 ft | 434 kts | 159° |
| 2026-05-07 23:09 | -29.26343 | -63.46746 | 36933 ft | 433 kts | 159° |
| 2026-05-07 23:09 | -29.31462 | -63.43152 | 36966 ft | 433 kts | 159° |
| 2026-05-07 23:10 | -29.36611 | -63.39532 | 36949 ft | 434 kts | 159° |
| 2026-05-07 23:10 | -29.41761 | -63.35906 | 36928 ft | 434 kts | 159° |
| 2026-05-07 23:11 | -29.46897 | -63.32286 | 36942 ft | 434 kts | 159° |
| 2026-05-07 23:11 | -29.52016 | -63.28661 | 36958 ft | 434 kts | 159° |
| 2026-05-07 23:12 | -29.57162 | -63.25008 | 36938 ft | 435 kts | 159° |
| 2026-05-07 23:12 | -29.62315 | -63.21345 | 36926 ft | 435 kts | 159° |
| 2026-05-07 23:13 | -29.67464 | -63.17681 | 36928 ft | 435 kts | 159° |
| 2026-05-07 23:13 | -29.72620 | -63.14008 | 36952 ft | 435 kts | 159° |
| 2026-05-07 23:14 | -29.77781 | -63.10329 | 36930 ft | 437 kts | 158° |
| 2026-05-07 23:14 | -29.82920 | -63.06659 | 36923 ft | 437 kts | 158° |
| 2026-05-07 23:15 | -29.88076 | -63.02972 | 36922 ft | 437 kts | 158° |
| 2026-05-07 23:15 | -29.93242 | -62.99273 | 36920 ft | 436 kts | 158° |
| 2026-05-07 23:16 | -29.98409 | -62.95571 | 36925 ft | 437 kts | 158° |
| 2026-05-07 23:16 | -30.03567 | -62.91870 | 36919 ft | 437 kts | 158° |
| 2026-05-07 23:17 | -30.08743 | -62.88151 | 36916 ft | 437 kts | 158° |
| 2026-05-07 23:17 | -30.13895 | -62.84444 | 36914 ft | 436 kts | 158° |
| 2026-05-07 23:18 | -30.19055 | -62.80728 | 36929 ft | 438 kts | 157° |
| 2026-05-07 23:18 | -30.24231 | -62.76996 | 36922 ft | 439 kts | 157° |
| 2026-05-07 23:19 | -30.29390 | -62.73269 | 36921 ft | 440 kts | 157° |
| 2026-05-07 23:19 | -30.34604 | -62.69500 | 36915 ft | 441 kts | 157° |
| 2026-05-07 23:20 | -30.39813 | -62.65731 | 36948 ft | 443 kts | 157° |
| 2026-05-07 23:20 | -30.45060 | -62.61933 | 36928 ft | 444 kts | 157° |
| 2026-05-07 23:21 | -30.50303 | -62.58130 | 36915 ft | 445 kts | 157° |
| 2026-05-07 23:21 | -30.55548 | -62.54320 | 36909 ft | 445 kts | 156° |
| 2026-05-07 23:22 | -30.60763 | -62.50527 | 36946 ft | 445 kts | 156° |
| 2026-05-07 23:22 | -30.66018 | -62.46702 | 36921 ft | 446 kts | 156° |
| 2026-05-07 23:23 | -30.71277 | -62.42867 | 36913 ft | 447 kts | 156° |
| 2026-05-07 23:23 | -30.76548 | -62.39018 | 36913 ft | 447 kts | 156° |
| 2026-05-07 23:24 | -30.81830 | -62.35171 | 36910 ft | 447 kts | 156° |
| 2026-05-07 23:24 | -30.87116 | -62.31337 | 36908 ft | 447 kts | 156° |
| 2026-05-07 23:25 | -30.92399 | -62.27498 | 36905 ft | 447 kts | 156° |
| 2026-05-07 23:25 | -30.97650 | -62.23673 | 36906 ft | 447 kts | 156° |
| 2026-05-07 23:26 | -31.02941 | -62.19818 | 36940 ft | 452 kts | 155° |
| 2026-05-07 23:26 | -31.08318 | -62.15900 | 36916 ft | 459 kts | 155° |
| 2026-05-07 23:27 | -31.16464 | -62.09943 | 36908 ft | 461 kts | 155° |
| 2026-05-07 23:27 | -31.21902 | -62.05955 | 36899 ft | 462 kts | 155° |
| 2026-05-07 23:28 | -31.27333 | -62.01926 | 36898 ft | 462 kts | 154° |
| 2026-05-07 23:28 | -31.32756 | -61.97888 | 36896 ft | 460 kts | 154° |
| 2026-05-07 23:29 | -31.38118 | -61.93893 | 36889 ft | 458 kts | 155° |
| 2026-05-07 23:29 | -31.42616 | -61.90541 | 36870 ft | 457 kts | 154° |
| 2026-05-07 23:30 | -31.48010 | -61.86522 | 36902 ft | 462 kts | 154° |
| 2026-05-07 23:30 | -31.53477 | -61.82442 | 36893 ft | 468 kts | 153° |
| 2026-05-07 23:31 | -31.58981 | -61.78324 | 36888 ft | 471 kts | 153° |
| 2026-05-07 23:31 | -31.64514 | -61.74177 | 36867 ft | 472 kts | 153° |
| 2026-05-07 23:32 | -31.70053 | -61.70019 | 36881 ft | 472 kts | 153° |
| 2026-05-07 23:32 | -31.75560 | -61.65880 | 36870 ft | 471 kts | 153° |
| 2026-05-07 23:33 | -31.81079 | -61.61727 | 36868 ft | 469 kts | 153° |
| 2026-05-07 23:33 | -31.86557 | -61.57599 | 36891 ft | 467 kts | 153° |
| 2026-05-07 23:34 | -31.92020 | -61.53478 | 36874 ft | 465 kts | 153° |
| 2026-05-07 23:34 | -31.97454 | -61.49374 | 36856 ft | 463 kts | 153° |
| 2026-05-07 23:35 | -32.02878 | -61.45270 | 36856 ft | 461 kts | 153° |
| 2026-05-07 23:35 | -32.08267 | -61.41187 | 36872 ft | 460 kts | 153° |
| 2026-05-07 23:36 | -32.13622 | -61.37125 | 36853 ft | 459 kts | 153° |
| 2026-05-07 23:36 | -32.18987 | -61.33048 | 36851 ft | 458 kts | 153° |
| 2026-05-07 23:37 | -32.24396 | -61.28937 | 36859 ft | 466 kts | 152° |
| 2026-05-07 23:37 | -32.29884 | -61.24747 | 36852 ft | 474 kts | 150° |
| 2026-05-07 23:38 | -32.35016 | -61.19728 | 36842 ft | 481 kts | 142° |
| 2026-05-07 23:38 | -32.39973 | -61.14377 | 36839 ft | 483 kts | 142° |
| 2026-05-07 23:39 | -32.44964 | -61.09014 | 36829 ft | 483 kts | 142° |
| 2026-05-07 23:39 | -32.49930 | -61.03752 | 36823 ft | 482 kts | 142° |
| 2026-05-07 23:40 | -32.54967 | -60.98443 | 36823 ft | 481 kts | 142° |
| 2026-05-07 23:40 | -32.59928 | -60.93211 | 36826 ft | 480 kts | 142° |
| 2026-05-07 23:41 | -32.64912 | -60.87945 | 36837 ft | 479 kts | 142° |
| 2026-05-07 23:41 | -32.69887 | -60.82678 | 36830 ft | 479 kts | 142° |
| 2026-05-07 23:42 | -32.74864 | -60.77399 | 36828 ft | 479 kts | 142° |
| 2026-05-07 23:42 | -32.79837 | -60.72116 | 36817 ft | 480 kts | 141° |
| 2026-05-07 23:43 | -32.84812 | -60.66824 | 36836 ft | 481 kts | 141° |
| 2026-05-07 23:43 | -32.89823 | -60.61484 | 36828 ft | 484 kts | 141° |
| 2026-05-07 23:44 | -32.94850 | -60.56120 | 36825 ft | 487 kts | 141° |
| 2026-05-07 23:44 | -32.99909 | -60.50710 | 36819 ft | 489 kts | 141° |
| 2026-05-07 23:45 | -33.04989 | -60.45271 | 36788 ft | 491 kts | 140° |
| 2026-05-07 23:45 | -33.10080 | -60.39810 | 36782 ft | 493 kts | 140° |
| 2026-05-07 23:46 | -33.15152 | -60.34362 | 36779 ft | 494 kts | 140° |
| 2026-05-07 23:46 | -33.17726 | -60.31594 | 36272 ft | 501 kts | 140° |
| 2026-05-07 23:46 | -33.20316 | -60.28807 | 35753 ft | 499 kts | 140° |
| 2026-05-07 23:47 | -33.22919 | -60.26001 | 35139 ft | 498 kts | 140° |
| 2026-05-07 23:47 | -33.25447 | -60.23273 | 34715 ft | 494 kts | 140° |
| 2026-05-07 23:47 | -33.27993 | -60.20525 | 34238 ft | 491 kts | 140° |
| 2026-05-07 23:47 | -33.30522 | -60.17792 | 33787 ft | 487 kts | 140° |
| 2026-05-07 23:48 | -33.33030 | -60.15081 | 33226 ft | 485 kts | 139° |
| 2026-05-07 23:48 | -33.35522 | -60.12385 | 32767 ft | 481 kts | 139° |
| 2026-05-07 23:48 | -33.38005 | -60.09698 | 32323 ft | 477 kts | 139° |
| 2026-05-07 23:48 | -33.40452 | -60.07047 | 31885 ft | 474 kts | 138° |
| 2026-05-07 23:49 | -33.42901 | -60.04391 | 31439 ft | 471 kts | 138° |
| 2026-05-07 23:49 | -33.45288 | -60.01802 | 31000 ft | 468 kts | 138° |
| 2026-05-07 23:49 | -33.47695 | -59.99188 | 30558 ft | 466 kts | 138° |
| 2026-05-07 23:49 | -33.50089 | -59.96586 | 30117 ft | 464 kts | 137° |
| 2026-05-07 23:50 | -33.52481 | -59.93984 | 29637 ft | 462 kts | 137° |
| 2026-05-07 23:50 | -33.54858 | -59.91397 | 29148 ft | 459 kts | 137° |
| 2026-05-07 23:50 | -33.57205 | -59.88839 | 28699 ft | 455 kts | 137° |
| 2026-05-07 23:50 | -33.59544 | -59.86289 | 28193 ft | 453 kts | 136° |
| 2026-05-07 23:51 | -33.61862 | -59.83760 | 27748 ft | 450 kts | 136° |
| 2026-05-07 23:51 | -33.64168 | -59.81242 | 27327 ft | 447 kts | 136° |
| 2026-05-07 23:51 | -33.66459 | -59.78739 | 26887 ft | 444 kts | 136° |
| 2026-05-07 23:51 | -33.68742 | -59.76242 | 26455 ft | 441 kts | 136° |
| 2026-05-07 23:52 | -33.71009 | -59.73761 | 26028 ft | 439 kts | 136° |
| 2026-05-07 23:52 | -33.73264 | -59.71291 | 25587 ft | 437 kts | 136° |
| 2026-05-07 23:52 | -33.75511 | -59.68828 | 25142 ft | 436 kts | 136° |
| 2026-05-07 23:52 | -33.77743 | -59.66379 | 24695 ft | 435 kts | 136° |
| 2026-05-07 23:53 | -33.79954 | -59.63952 | 24262 ft | 434 kts | 136° |
| 2026-05-07 23:53 | -33.82178 | -59.61508 | 23830 ft | 432 kts | 137° |
| 2026-05-07 23:53 | -33.84397 | -59.59070 | 23356 ft | 431 kts | 135° |
| 2026-05-07 23:53 | -33.86617 | -59.56627 | 22846 ft | 432 kts | 135° |
| 2026-05-07 23:54 | -33.88819 | -59.54202 | 22409 ft | 429 kts | 135° |
| 2026-05-07 23:54 | -33.91016 | -59.51782 | 21973 ft | 426 kts | 136° |
| 2026-05-07 23:54 | -33.93200 | -59.49374 | 21553 ft | 423 kts | 136° |
| 2026-05-07 23:54 | -33.95362 | -59.46989 | 21122 ft | 420 kts | 136° |
| 2026-05-07 23:55 | -33.97512 | -59.44615 | 20708 ft | 417 kts | 136° |
| 2026-05-07 23:55 | -33.99640 | -59.42264 | 20294 ft | 414 kts | 137° |
| 2026-05-07 23:55 | -34.01731 | -59.39951 | 19889 ft | 410 kts | 137° |
| 2026-05-07 23:55 | -34.03846 | -59.37610 | 19490 ft | 407 kts | 137° |
| 2026-05-07 23:56 | -34.05918 | -59.35317 | 19086 ft | 403 kts | 138° |
| 2026-05-07 23:56 | -34.07973 | -59.33039 | 18675 ft | 399 kts | 138° |
| 2026-05-07 23:56 | -34.10012 | -59.30777 | 18264 ft | 396 kts | 137° |
| 2026-05-07 23:56 | -34.12012 | -59.28559 | 17858 ft | 393 kts | 137° |
| 2026-05-07 23:57 | -34.14013 | -59.26338 | 17422 ft | 389 kts | 137° |
| 2026-05-07 23:57 | -34.16001 | -59.24129 | 16985 ft | 384 kts | 138° |
| 2026-05-07 23:57 | -34.17962 | -59.21949 | 16590 ft | 380 kts | 138° |
| 2026-05-07 23:57 | -34.19902 | -59.19791 | 16193 ft | 376 kts | 138° |
| 2026-05-07 23:58 | -34.21817 | -59.17659 | 15809 ft | 373 kts | 138° |
| 2026-05-07 23:58 | -34.23693 | -59.15569 | 15435 ft | 370 kts | 138° |
| 2026-05-07 23:58 | -34.25575 | -59.13471 | 15051 ft | 367 kts | 138° |
| 2026-05-07 23:58 | -34.27469 | -59.11359 | 14677 ft | 365 kts | 138° |
| 2026-05-07 23:59 | -34.29308 | -59.09307 | 14301 ft | 363 kts | 138° |
| 2026-05-07 23:59 | -34.31158 | -59.07240 | 13927 ft | 363 kts | 138° |
| 2026-05-07 23:59 | -34.32968 | -59.05072 | 13301 ft | 371 kts | 129° |
| 2026-05-07 23:59 | -34.34345 | -59.02415 | 12740 ft | 371 kts | 118° |
| 2026-05-08 00:00 | -34.35602 | -58.99699 | 12274 ft | 369 kts | 118° |
| 2026-05-08 00:00 | -34.36856 | -58.97003 | 11877 ft | 364 kts | 118° |
| 2026-05-08 00:00 | -34.38095 | -58.94354 | 11491 ft | 360 kts | 119° |
| 2026-05-08 00:00 | -34.39328 | -58.91733 | 11115 ft | 356 kts | 119° |
| 2026-05-08 00:01 | -34.40548 | -58.89143 | 10758 ft | 351 kts | 119° |
| 2026-05-08 00:01 | -34.41757 | -58.86584 | 10393 ft | 348 kts | 119° |
| 2026-05-08 00:01 | -34.42950 | -58.84057 | 10043 ft | 345 kts | 119° |
| 2026-05-08 00:01 | -34.44134 | -58.81552 | 9910 ft | 337 kts | 119° |
| 2026-05-08 00:02 | -34.46493 | -58.76554 | 9542 ft | 341 kts | 119° |
| 2026-05-08 00:02 | -34.47408 | -58.74611 | 9259 ft | 346 kts | 119° |
| 2026-05-08 00:02 | -34.48590 | -58.72101 | 8914 ft | 347 kts | 120° |
| 2026-05-08 00:03 | -34.49782 | -58.69568 | 8571 ft | 344 kts | 120° |
| 2026-05-08 00:03 | -34.50953 | -58.67078 | 8241 ft | 338 kts | 121° |
| 2026-05-08 00:03 | -34.52111 | -58.64615 | 7916 ft | 332 kts | 121° |
| 2026-05-08 00:03 | -34.53248 | -58.62195 | 7601 ft | 329 kts | 122° |
| 2026-05-08 00:04 | -34.54375 | -58.59794 | 7290 ft | 325 kts | 122° |
| 2026-05-08 00:04 | -34.55487 | -58.57424 | 6991 ft | 322 kts | 123° |
| 2026-05-08 00:04 | -34.56589 | -58.55075 | 6678 ft | 318 kts | 123° |
| 2026-05-08 00:04 | -34.57676 | -58.52754 | 6382 ft | 315 kts | 123° |
| 2026-05-08 00:05 | -34.58756 | -58.50449 | 6072 ft | 313 kts | 123° |
| 2026-05-08 00:05 | -34.59827 | -58.48161 | 5950 ft | 309 kts | 124° |
| 2026-05-08 00:05 | -34.60832 | -58.46012 | 5626 ft | 301 kts | 124° |
| 2026-05-08 00:05 | -34.61889 | -58.43749 | 5309 ft | 289 kts | 123° |
| 2026-05-08 00:06 | -34.62910 | -58.41563 | 4968 ft | 280 kts | 124° |
| 2026-05-08 00:06 | -34.63928 | -58.39384 | 4623 ft | 272 kts | 124° |
| 2026-05-08 00:06 | -34.64854 | -58.37402 | 4310 ft | 269 kts | 125° |
| 2026-05-08 00:06 | -34.65776 | -58.35427 | 4081 ft | 265 kts | 126° |
| 2026-05-08 00:07 | -34.66658 | -58.33532 | 3948 ft | 258 kts | 126° |
| 2026-05-08 00:07 | -34.67527 | -58.31664 | 3819 ft | 251 kts | 126° |
| 2026-05-08 00:07 | -34.68374 | -58.29842 | 3708 ft | 244 kts | 126° |
| 2026-05-08 00:07 | -34.68996 | -58.27942 | 3588 ft | 247 kts | 100° |
| 2026-05-08 00:08 | -34.68706 | -58.25881 | 3359 ft | 254 kts | 64° |
| 2026-05-08 00:08 | -34.67543 | -58.24330 | 3183 ft | 247 kts | 27° |
| 2026-05-08 00:08 | -34.65947 | -58.23754 | 3002 ft | 236 kts | 353° |
| 2026-05-08 00:08 | -34.64509 | -58.24336 | 2993 ft | 209 kts | 307° |
| 2026-05-08 00:09 | -34.63879 | -58.25763 | 3011 ft | 187 kts | 278° |
| 2026-05-08 00:09 | -34.63390 | -58.27326 | 2607 ft | 200 kts | 288° |
| 2026-05-08 00:09 | -34.62761 | -58.28770 | 2344 ft | 188 kts | 291° |
| 2026-05-08 00:09 | -34.62329 | -58.29667 | 2179 ft | 183 kts | 293° |
| 2026-05-08 00:10 | -34.61483 | -58.31356 | 1863 ft | 164 kts | 291° |
| 2026-05-08 00:10 | -34.60953 | -58.32471 | 1666 ft | 147 kts | 293° |
| 2026-05-08 00:10 | -34.60428 | -58.33467 | 1474 ft | 135 kts | 295° |
| 2026-05-08 00:10 | -34.59914 | -58.34413 | 1305 ft | 135 kts | 296° |
| 2026-05-08 00:11 | -34.59391 | -58.35360 | 1123 ft | 134 kts | 297° |
| 2026-05-08 00:11 | -34.58874 | -58.36287 | 944 ft | 132 kts | 297° |
| 2026-05-08 00:11 | -34.58344 | -58.37239 | 780 ft | 137 kts | 297° |
| 2026-05-08 00:11 | -34.57817 | -58.38185 | 585 ft | 134 kts | 299° |
| 2026-05-08 00:12 | -34.57267 | -58.39169 | 417 ft | 147 kts | 300° |
| 2026-05-08 00:12 | -34.56692 | -58.40199 | 166 ft | 147 kts | 301° |
| 2026-05-08 00:12 | -34.56146 | -58.41182 | 26 ft | 134 kts | 303° |
| 2026-05-08 00:12 | -34.55749 | -58.41898 | 24 ft | 72 kts | 304° |
| 2026-05-08 00:13 | -34.55565 | -58.42226 | 26 ft | 22 kts | 303° |
| 2026-05-08 00:13 | -34.55478 | -58.42381 | 29 ft | 22 kts | 304° |
| 2026-05-08 00:13 | -34.55400 | -58.42505 | 27 ft | 14 kts | 341° |
| 2026-05-08 00:13 | -34.55363 | -58.42428 | 24 ft | 13 kts | 99° |
| 2026-05-08 00:14 | -34.55392 | -58.42339 | 26 ft | 11 kts | 126° |
| 2026-05-08 00:14 | -34.55428 | -58.42280 | 26 ft | 8 kts | 126° |
| 2026-05-08 00:14 | -34.55463 | -58.42224 | 27 ft | 8 kts | 128° |
| 2026-05-08 00:14 | -34.55497 | -58.42170 | 26 ft | 8 kts | 127° |
| 2026-05-08 00:15 | -34.55530 | -58.42118 | 26 ft | 8 kts | 127° |
| 2026-05-08 00:15 | -34.55561 | -58.42067 | 27 ft | 7 kts | 127° |
| 2026-05-08 00:15 | -34.55592 | -58.42018 | 27 ft | 7 kts | 127° |
| 2026-05-08 00:15 | -34.55623 | -58.41959 | 26 ft | 12 kts | 123° |
| 2026-05-08 00:16 | -34.55653 | -58.41883 | 24 ft | 6 kts | 80° |
| 2026-05-08 00:16 | -34.55622 | -58.41847 | 24 ft | 6 kts | 33° |
| 2026-05-08 00:16 | -34.55610 | -58.41803 | 24 ft | 6 kts | 111° |
| 2026-05-08 00:16 | -34.55632 | -58.41759 | 25 ft | 6 kts | 123° |
| 2026-05-08 00:17 | -34.55650 | -58.41714 | 27 ft | 6 kts | 82° |
| 2026-05-08 00:17 | -34.55623 | -58.41682 | 26 ft | 0 kts | 35° |
| 2026-05-08 00:17 | -34.55619 | -58.41679 | 25 ft | 3 kts | 34° |
| 2026-05-08 00:17 | -34.55608 | -58.41670 | 24 ft | 0 kts | 34° |